createdAt,value
2018-12-17T00:02:05.605Z,29.95
2018-12-17T00:04:33.727Z,29.67
2018-12-17T00:07:01.807Z,27.97
2018-12-17T00:09:29.991Z,27.42
2018-12-17T00:11:58.117Z,28.23
2018-12-17T00:14:26.250Z,28.00
2018-12-17T00:16:54.385Z,29.63
2018-12-17T00:19:22.476Z,28.70
2018-12-17T00:21:51.279Z,28.30
2018-12-17T00:24:19.410Z,27.17
2018-12-17T00:26:47.500Z,28.10
2018-12-17T00:29:15.809Z,27.67
2018-12-17T00:31:43.885Z,27.80
2018-12-17T00:34:11.971Z,27.73
2018-12-17T00:36:40.100Z,27.40
2018-12-17T00:39:08.275Z,28.63
2018-12-17T00:41:37.459Z,29.87
2018-12-17T00:44:05.740Z,28.80
2018-12-17T00:46:34.363Z,32.07
2018-12-17T00:49:02.458Z,31.30
2018-12-17T00:51:30.554Z,30.47
2018-12-17T00:53:58.654Z,28.97
2018-12-17T00:56:26.797Z,27.53
2018-12-17T00:58:54.950Z,27.93
2018-12-17T01:01:23.150Z,27.73
2018-12-17T01:03:52.583Z,29.15
2018-12-17T01:06:20.720Z,28.50
2018-12-17T01:08:49.234Z,33.93
2018-12-17T01:11:17.328Z,33.03
2018-12-17T01:13:45.430Z,32.75
2018-12-17T01:16:13.533Z,35.93
2018-12-17T01:18:41.622Z,36.87
2018-12-17T01:21:09.755Z,34.47
2018-12-17T01:23:38.017Z,35.57
2018-12-17T01:26:06.181Z,35.93
2018-12-17T01:28:34.966Z,33.17
2018-12-17T01:31:03.096Z,32.37
2018-12-17T01:33:31.192Z,33.00
2018-12-17T01:35:59.358Z,31.77
2018-12-17T01:38:27.452Z,33.27
2018-12-17T01:40:56.746Z,30.87
2018-12-17T01:43:24.888Z,33.13
2018-12-17T01:45:52.987Z,30.27
2018-12-17T01:48:21.100Z,31.67
2018-12-17T01:50:50.225Z,33.13
2018-12-17T01:53:18.323Z,31.80
2018-12-17T01:55:46.773Z,30.87
2018-12-17T01:58:14.974Z,33.47
2018-12-17T02:00:43.140Z,32.33
2018-12-17T02:03:11.215Z,33.37
2018-12-17T02:05:40.451Z,33.08
2018-12-17T02:08:08.583Z,34.23
2018-12-17T02:10:36.771Z,35.83
2018-12-17T02:13:04.920Z,34.43
2018-12-17T02:15:33.736Z,34.77
2018-12-17T02:18:01.852Z,31.73
2018-12-17T02:20:29.973Z,33.00
2018-12-17T02:22:58.087Z,33.47
2018-12-17T02:25:26.178Z,34.30
2018-12-17T02:27:54.351Z,35.50
2018-12-17T02:30:22.469Z,34.77
2018-12-17T02:32:50.592Z,34.67
2018-12-17T02:35:18.680Z,34.17
2018-12-17T02:37:46.775Z,32.83
2018-12-17T02:40:15.366Z,32.17
2018-12-17T02:42:43.944Z,33.23
2018-12-17T02:45:12.370Z,34.20
2018-12-17T02:47:40.462Z,33.78
2018-12-17T02:50:08.568Z,34.30
2018-12-17T02:52:36.655Z,31.57
2018-12-17T02:55:05.527Z,33.47
2018-12-17T02:57:33.666Z,33.60
2018-12-17T03:00:01.873Z,30.13
2018-12-17T03:02:30.929Z,30.30
2018-12-17T03:04:59.051Z,29.90
2018-12-17T03:07:27.355Z,30.73
2018-12-17T03:09:55.890Z,33.07
2018-12-17T03:12:24.343Z,29.63
2018-12-17T03:14:52.559Z,31.87
2018-12-17T03:17:20.667Z,32.43
2018-12-17T03:19:48.793Z,30.23
2018-12-17T03:22:16.916Z,30.70
2018-12-17T03:24:45.138Z,32.28
2018-12-17T03:27:13.295Z,29.27
2018-12-17T03:29:41.553Z,30.83
2018-12-17T03:32:09.690Z,31.47
2018-12-17T03:34:37.855Z,34.03
2018-12-17T03:37:05.963Z,36.00
2018-12-17T03:39:34.159Z,32.70
2018-12-17T03:42:02.244Z,30.43
2018-12-17T03:44:30.327Z,32.50
2018-12-17T03:46:58.521Z,30.15
2018-12-17T03:49:26.959Z,30.07
2018-12-17T03:51:56.576Z,30.88
2018-12-17T03:54:24.753Z,31.27
2018-12-17T03:56:52.927Z,29.60
2018-12-17T03:59:21.097Z,29.07
2018-12-17T04:01:49.301Z,31.07
2018-12-17T04:04:17.480Z,30.30
2018-12-17T04:06:45.624Z,29.53
2018-12-17T04:09:13.812Z,31.30
2018-12-17T04:11:41.902Z,29.67
2018-12-17T04:14:10.579Z,31.97
2018-12-17T04:16:39.569Z,30.17
2018-12-17T04:19:07.725Z,25.80
2018-12-17T04:21:36.715Z,26.80
2018-12-17T04:24:04.891Z,26.10
2018-12-17T04:26:33.003Z,26.27
2018-12-17T04:29:06.726Z,26.30
2018-12-17T04:31:31.193Z,24.90
2018-12-17T04:33:59.335Z,25.37
2018-12-17T04:36:27.428Z,29.50
2018-12-17T04:38:55.599Z,28.07
2018-12-17T04:41:23.765Z,27.60
2018-12-17T04:43:51.878Z,27.90
2018-12-17T04:46:20.056Z,28.20
2018-12-17T04:48:48.189Z,29.20
2018-12-17T04:51:16.493Z,31.33
2018-12-17T04:53:45.487Z,31.90
2018-12-17T04:56:13.644Z,31.33
2018-12-17T04:58:41.731Z,31.00
2018-12-17T05:01:09.929Z,28.70
2018-12-17T05:03:38.016Z,28.77
2018-12-17T05:06:06.148Z,29.55
2018-12-17T05:08:34.917Z,28.10
2018-12-17T05:11:03.051Z,28.57
2018-12-17T05:13:31.464Z,28.97
2018-12-17T05:16:00.451Z,32.67
2018-12-17T05:18:28.540Z,31.73
2018-12-17T05:20:56.652Z,29.47
2018-12-17T05:23:24.990Z,30.03
2018-12-17T05:25:53.140Z,28.67
2018-12-17T05:28:21.246Z,27.63
2018-12-17T05:30:49.359Z,29.97
2018-12-17T05:33:17.752Z,29.90
2018-12-17T05:35:45.941Z,31.00
2018-12-17T05:38:14.088Z,29.30
2018-12-17T05:40:42.196Z,30.23
2018-12-17T05:43:10.340Z,29.93
2018-12-17T05:45:38.477Z,28.62
2018-12-17T05:48:06.589Z,31.33
2018-12-17T05:50:35.257Z,31.03
2018-12-17T05:53:03.453Z,34.55
2018-12-17T05:55:31.618Z,35.70
2018-12-17T05:57:59.904Z,35.17
2018-12-17T06:00:28.198Z,33.53
2018-12-17T06:02:56.317Z,34.37
2018-12-17T06:05:24.518Z,32.63
2018-12-17T06:07:52.634Z,32.03
2018-12-17T06:10:20.786Z,33.07
2018-12-17T06:12:48.932Z,31.70
2018-12-17T06:15:17.134Z,32.17
2018-12-17T06:17:46.351Z,30.77
2018-12-17T06:20:15.108Z,30.27
2018-12-17T06:22:43.298Z,30.83
2018-12-17T06:25:11.381Z,34.53
2018-12-17T06:27:39.494Z,31.33
2018-12-17T06:30:07.674Z,29.33
2018-12-17T06:32:35.799Z,31.07
2018-12-17T06:35:04.296Z,30.97
2018-12-17T06:37:32.394Z,30.77
2018-12-17T06:40:00.520Z,31.83
2018-12-17T06:42:30.737Z,32.00
2018-12-17T06:44:58.830Z,30.93
2018-12-17T06:47:26.940Z,33.10
2018-12-17T06:49:56.266Z,31.03
2018-12-17T06:52:24.980Z,37.97
2018-12-17T06:54:54.924Z,40.10
2018-12-17T06:57:23.327Z,42.73
2018-12-17T06:59:51.443Z,37.30
2018-12-17T07:02:19.652Z,31.17
2018-12-17T07:04:48.403Z,33.30
2018-12-17T07:07:17.368Z,36.40
2018-12-17T07:09:45.478Z,34.33
2018-12-17T07:12:13.946Z,34.97
2018-12-17T07:14:42.402Z,33.07
2018-12-17T07:17:10.491Z,34.37
2018-12-17T07:19:38.587Z,34.25
2018-12-17T07:22:11.894Z,32.57
2018-12-17T07:24:40.045Z,31.30
2018-12-17T07:27:08.123Z,32.20
2018-12-17T07:29:36.240Z,29.02
2018-12-17T07:32:04.453Z,31.43
2018-12-17T07:34:33.966Z,29.77
2018-12-17T07:37:02.455Z,30.27
2018-12-17T07:39:32.247Z,30.00
2018-12-17T07:42:06.371Z,28.90
2018-12-17T07:44:35.671Z,28.77
2018-12-17T07:47:03.871Z,33.00
2018-12-17T07:49:31.950Z,32.20
2018-12-17T07:52:00.129Z,35.30
2018-12-17T07:54:29.478Z,33.87
2018-12-17T07:56:59.307Z,31.27
2018-12-17T07:59:28.115Z,28.27
2018-12-17T08:01:59.119Z,30.37
2018-12-17T08:04:27.407Z,32.10
2018-12-17T08:06:55.696Z,32.60
2018-12-17T08:09:24.453Z,30.17
2018-12-17T08:11:52.580Z,30.10
2018-12-17T08:14:20.687Z,33.17
2018-12-17T08:16:50.637Z,33.07
2018-12-17T08:19:21.964Z,33.80
2018-12-17T08:21:50.176Z,32.83
2018-12-17T08:24:18.267Z,30.23
2018-12-17T08:26:46.419Z,32.03
2018-12-17T08:29:14.586Z,32.60
2018-12-17T08:31:42.683Z,31.73
2018-12-17T08:34:10.779Z,31.10
2018-12-17T08:36:38.960Z,31.20
2018-12-17T08:39:13.217Z,30.67
2018-12-17T08:41:41.524Z,32.15
2018-12-17T08:44:10.698Z,30.57
2018-12-17T08:46:40.823Z,30.60
2018-12-17T08:49:08.933Z,29.73
2018-12-17T08:51:37.043Z,30.80
2018-12-17T08:54:05.243Z,29.50
2018-12-17T08:56:33.415Z,29.37
2018-12-17T08:59:01.524Z,26.87
2018-12-17T09:01:29.655Z,28.47
2018-12-17T09:03:57.735Z,29.40
2018-12-17T09:06:25.862Z,28.63
2018-12-17T09:08:54.539Z,28.30
2018-12-17T09:11:22.652Z,27.37
2018-12-17T09:13:53.573Z,31.30
2018-12-17T09:16:27.092Z,32.40
2018-12-17T09:18:55.410Z,31.77
2018-12-17T09:21:23.680Z,33.50
2018-12-17T09:23:51.767Z,33.27
2018-12-17T09:26:19.887Z,31.77
2018-12-17T09:28:47.984Z,32.60
2018-12-17T09:31:16.083Z,31.40
2018-12-17T09:33:45.123Z,33.23
2018-12-17T09:36:13.327Z,32.58
2018-12-17T09:38:41.495Z,33.83
2018-12-17T09:41:10.443Z,32.48
2018-12-17T09:43:39.035Z,32.67
2018-12-17T09:46:07.122Z,31.70
2018-12-17T09:48:35.403Z,32.80
2018-12-17T09:51:03.599Z,32.17
2018-12-17T09:53:31.687Z,32.70
2018-12-17T09:55:59.783Z,31.57
2018-12-17T09:58:28.038Z,31.17
2018-12-17T10:00:56.128Z,31.93
2018-12-17T10:03:24.822Z,33.17
2018-12-17T10:05:52.916Z,32.53
2018-12-17T10:08:21.788Z,32.73
2018-12-17T10:10:49.966Z,35.40
2018-12-17T10:13:18.076Z,32.07
2018-12-17T10:15:46.167Z,31.82
2018-12-17T10:18:14.799Z,31.37
2018-12-17T10:20:43.410Z,31.75
2018-12-17T10:23:12.069Z,31.40
2018-12-17T10:25:41.570Z,30.80
2018-12-17T10:28:10.228Z,32.53
2018-12-17T10:30:39.926Z,30.93
2018-12-17T10:33:08.017Z,30.77
2018-12-17T10:35:36.519Z,31.90
2018-12-17T10:38:06.716Z,30.17
2018-12-17T10:40:39.115Z,30.93
2018-12-17T10:43:07.244Z,36.00
2018-12-17T10:45:36.528Z,37.30
2018-12-17T10:48:04.674Z,33.47
2018-12-17T10:50:32.868Z,35.10
2018-12-17T10:53:01.099Z,34.13
2018-12-17T10:55:29.227Z,38.10
2018-12-17T10:57:58.048Z,35.77
2018-12-17T11:00:32.236Z,34.10
2018-12-17T11:03:05.023Z,34.63
2018-12-17T11:05:33.916Z,34.03
2018-12-17T11:08:02.107Z,33.83
2018-12-17T11:10:34.822Z,33.30
2018-12-17T11:13:02.991Z,33.77
2018-12-17T11:15:31.096Z,33.13
2018-12-17T11:17:59.183Z,33.53
2018-12-17T11:20:27.272Z,32.38
2018-12-17T11:22:56.471Z,33.17
2018-12-17T11:25:24.801Z,31.53
2018-12-17T11:27:52.959Z,32.30
2018-12-17T11:30:21.042Z,32.87
2018-12-17T11:32:49.134Z,31.97
2018-12-17T11:35:17.220Z,31.57
2018-12-17T11:37:45.392Z,31.53
2018-12-17T11:40:13.660Z,29.73
2018-12-17T11:42:41.963Z,29.27
2018-12-17T11:45:10.658Z,27.57
2018-12-17T11:47:40.454Z,27.30
2018-12-17T11:50:08.653Z,26.07
2018-12-17T11:52:38.971Z,26.03
2018-12-17T11:55:07.814Z,23.87
2018-12-17T11:58:11.731Z,22.67
2018-12-17T12:00:42.248Z,21.70
2018-12-17T12:03:10.351Z,22.87
2018-12-17T12:05:38.455Z,21.93
2018-12-17T12:08:06.537Z,22.50
2018-12-17T12:10:34.697Z,20.70
2018-12-17T12:13:02.818Z,19.82
2018-12-17T12:15:30.958Z,19.20
2018-12-17T12:17:59.095Z,19.90
2018-12-17T12:20:27.171Z,19.20
2018-12-17T12:22:55.716Z,20.43
2018-12-17T12:25:24.525Z,20.25
2018-12-17T12:27:52.635Z,20.97
2018-12-17T12:30:20.724Z,24.45
2018-12-17T12:32:52.147Z,25.50
2018-12-17T12:35:20.231Z,28.12
2018-12-17T12:37:48.322Z,28.27
2018-12-17T12:40:16.426Z,27.00
2018-12-17T12:42:51.330Z,26.13
2018-12-17T12:45:15.588Z,25.50
2018-12-17T12:47:43.751Z,23.63
2018-12-17T12:50:11.881Z,24.70
2018-12-17T12:52:40.003Z,24.87
2018-12-17T12:55:08.122Z,24.57
2018-12-17T12:57:36.916Z,24.47
2018-12-17T13:00:11.401Z,24.43
2018-12-17T13:02:39.567Z,24.30
2018-12-17T13:05:07.691Z,26.40
2018-12-17T13:07:35.861Z,25.60
2018-12-17T13:10:06.899Z,24.87
2018-12-17T13:12:35.227Z,33.00
2018-12-17T13:15:03.727Z,26.53
2018-12-17T13:17:31.852Z,34.77
2018-12-17T13:19:59.966Z,25.87
2018-12-17T13:22:29.140Z,24.50
2018-12-17T13:25:12.095Z,23.33
2018-12-17T13:27:40.191Z,22.60
2018-12-17T13:30:10.498Z,22.53
2018-12-17T13:32:38.641Z,21.67
2018-12-17T13:35:10.201Z,22.20
2018-12-17T13:37:44.671Z,22.23
2018-12-17T13:40:12.793Z,21.80
2018-12-17T13:42:40.883Z,22.10
2018-12-17T13:45:09.155Z,22.13
2018-12-17T13:47:37.229Z,23.13
2018-12-17T13:50:11.885Z,22.95
2018-12-17T13:52:46.355Z,22.00
2018-12-17T13:55:15.824Z,23.70
2018-12-17T13:57:44.503Z,24.47
2018-12-17T14:00:15.107Z,24.32
2018-12-17T14:02:44.070Z,26.17
2018-12-17T14:05:12.201Z,26.60
2018-12-17T14:07:40.315Z,31.97
2018-12-17T14:10:15.529Z,45.13
2018-12-17T14:12:43.703Z,61.13
2018-12-17T14:15:11.804Z,27.73
2018-12-17T14:17:44.230Z,27.53
2018-12-17T14:22:53.929Z,24.53
2018-12-17T14:25:22.056Z,24.13
2018-12-17T14:27:54.624Z,22.83
2018-12-17T14:30:26.901Z,24.20
2018-12-17T14:32:55.036Z,23.15
2018-12-17T14:35:23.122Z,23.67
2018-12-17T14:37:56.576Z,21.80
2018-12-17T14:40:25.709Z,22.40
2018-12-17T14:42:54.279Z,23.30
2018-12-17T14:45:24.524Z,26.23
2018-12-17T14:47:54.305Z,24.60
2018-12-17T14:50:22.392Z,21.93
2018-12-17T14:52:51.086Z,22.47
2018-12-17T14:55:19.662Z,21.63
2018-12-17T14:57:48.289Z,24.50
2018-12-17T15:00:26.528Z,24.63
2018-12-17T15:02:54.762Z,23.23
2018-12-17T15:05:22.930Z,21.97
2018-12-17T15:07:51.062Z,26.40
2018-12-17T15:10:19.155Z,24.87
2018-12-17T15:12:47.251Z,23.37
2018-12-17T15:15:15.763Z,23.73
2018-12-17T15:17:43.926Z,26.67
2018-12-17T15:20:12.072Z,26.80
2018-12-17T15:22:40.235Z,24.67
2018-12-17T15:25:08.902Z,30.40
2018-12-17T15:27:37.088Z,30.60
2018-12-17T15:30:06.536Z,26.27
2018-12-17T15:32:35.246Z,25.13
2018-12-17T15:35:03.410Z,25.93
2018-12-17T15:37:31.549Z,24.97
2018-12-17T15:39:59.671Z,29.30
2018-12-17T15:42:27.797Z,24.20
2018-12-17T15:44:55.964Z,25.33
2018-12-17T15:47:24.687Z,23.63
2018-12-17T15:49:52.838Z,29.82
2018-12-17T15:52:21.204Z,29.17
2018-12-17T15:54:49.839Z,29.05
2018-12-17T15:57:17.970Z,30.27
2018-12-17T15:59:47.558Z,28.67
2018-12-17T16:02:15.732Z,26.77
2018-12-17T16:04:44.816Z,24.43
2018-12-17T16:07:12.935Z,25.73
2018-12-17T16:09:41.007Z,23.50
2018-12-17T16:12:09.349Z,24.27
2018-12-17T16:14:37.482Z,24.80
2018-12-17T16:17:16.711Z,24.70
2018-12-17T16:19:45.611Z,27.17
2018-12-17T16:22:13.770Z,28.20
2018-12-17T16:24:41.884Z,36.53
2018-12-17T16:27:10.094Z,29.10
2018-12-17T16:29:38.208Z,29.77
2018-12-17T16:32:06.317Z,30.70
2018-12-17T16:34:34.575Z,34.03
2018-12-17T16:37:03.361Z,36.10
2018-12-17T16:39:31.827Z,38.00
2018-12-17T16:42:00.003Z,48.80
2018-12-17T16:44:28.151Z,47.40
2018-12-17T16:46:56.320Z,45.93
2018-12-17T16:49:24.659Z,40.78
2018-12-17T16:51:53.497Z,30.97
2018-12-17T16:54:24.099Z,28.37
2018-12-17T16:56:52.488Z,26.80
2018-12-17T16:59:20.614Z,27.07
2018-12-17T17:01:48.740Z,28.87
2018-12-17T17:04:16.991Z,24.50
2018-12-17T17:06:45.171Z,25.00
2018-12-17T17:09:13.338Z,22.17
2018-12-17T17:11:41.467Z,27.53
2018-12-17T17:14:09.677Z,62.90
2018-12-17T17:16:37.955Z,20.80
2018-12-17T17:19:06.073Z,19.57
2018-12-17T17:21:35.284Z,18.60
2018-12-17T17:24:03.415Z,19.63
2018-12-17T17:26:31.500Z,19.83
2018-12-17T17:29:00.813Z,21.27
2018-12-17T17:31:29.432Z,21.63
2018-12-17T17:33:59.243Z,19.73
2018-12-17T17:36:28.924Z,23.87
2018-12-17T17:38:57.668Z,22.07
2018-12-17T17:41:27.737Z,29.10
2018-12-17T17:43:57.541Z,25.90
2018-12-17T17:46:26.902Z,26.60
2018-12-17T17:48:59.335Z,35.57
2018-12-17T17:51:28.793Z,32.43
2018-12-17T17:53:56.903Z,30.13
2018-12-17T17:56:25.019Z,26.17
2018-12-17T17:58:54.142Z,28.60
2018-12-17T18:01:22.320Z,25.45
2018-12-17T18:06:29.757Z,22.63
2018-12-17T18:08:57.887Z,24.87
2018-12-17T18:11:25.988Z,26.40
2018-12-17T18:13:54.919Z,23.50
2018-12-17T18:16:23.364Z,21.57
2018-12-17T18:18:51.598Z,20.80
2018-12-17T18:21:19.704Z,20.50
2018-12-17T18:23:47.818Z,20.45
2018-12-17T18:26:16.072Z,18.50
2018-12-17T18:28:48.086Z,18.77
2018-12-17T18:31:16.238Z,21.73
2018-12-17T18:33:45.408Z,19.97
2018-12-17T18:36:13.505Z,22.63
2018-12-17T18:38:41.608Z,22.82
2018-12-17T18:41:13.484Z,23.03
2018-12-17T18:43:42.360Z,24.07
2018-12-17T18:46:10.555Z,25.88
2018-12-17T18:48:38.652Z,23.33
2018-12-17T18:51:06.776Z,24.67
2018-12-17T18:53:34.951Z,26.03
2018-12-17T18:56:15.012Z,28.90
2018-12-17T18:58:43.114Z,26.37
2018-12-17T19:01:12.395Z,24.47
2018-12-17T19:03:41.043Z,23.70
2018-12-17T19:06:27.587Z,22.90
2018-12-17T19:08:55.806Z,24.73
2018-12-17T19:11:24.517Z,22.43
2018-12-17T19:13:52.608Z,21.50
2018-12-17T19:16:20.790Z,19.75
2018-12-17T19:18:48.914Z,19.10
2018-12-17T19:21:16.989Z,18.65
2018-12-17T19:23:45.086Z,20.83
2018-12-17T19:26:13.286Z,22.13
2018-12-17T19:28:41.363Z,21.57
2018-12-17T19:31:10.036Z,23.13
2018-12-17T19:33:38.103Z,23.17
2018-12-17T19:36:06.863Z,28.07
2018-12-17T19:38:35.078Z,23.38
2018-12-17T19:41:05.721Z,23.10
2018-12-17T19:43:33.882Z,20.53
2018-12-17T19:46:01.991Z,20.10
2018-12-17T19:48:30.113Z,20.30
2018-12-17T19:50:58.208Z,21.27
2018-12-17T19:53:26.290Z,21.87
2018-12-17T19:55:54.472Z,20.97
2018-12-17T19:58:22.548Z,22.27
2018-12-17T20:00:50.699Z,22.05
2018-12-17T20:03:19.071Z,22.20
2018-12-17T20:05:48.351Z,21.33
2018-12-17T20:08:16.461Z,24.73
2018-12-17T20:10:44.647Z,23.73
2018-12-17T20:13:12.727Z,23.37
2018-12-17T20:15:41.629Z,21.40
2018-12-17T20:18:09.908Z,21.17
2018-12-17T20:20:38.043Z,20.40
2018-12-17T20:23:06.138Z,21.93
2018-12-17T20:25:34.362Z,19.43
2018-12-17T20:28:03.528Z,19.47
2018-12-17T20:30:31.695Z,20.63
2018-12-17T20:32:59.827Z,19.45
2018-12-17T20:35:27.931Z,20.80
2018-12-17T20:37:56.017Z,20.13
2018-12-17T20:40:24.155Z,21.10
2018-12-17T20:42:52.787Z,20.37
2018-12-17T20:45:20.941Z,19.48
2018-12-17T20:47:49.123Z,21.60
2018-12-17T20:50:17.238Z,21.93
2018-12-17T20:52:45.414Z,22.63
2018-12-17T20:55:13.606Z,26.73
2018-12-17T20:57:41.713Z,29.57
2018-12-17T21:00:10.929Z,26.97
2018-12-17T21:02:39.020Z,24.90
2018-12-17T21:05:07.145Z,24.00
2018-12-17T21:07:35.339Z,25.17
2018-12-17T21:10:04.640Z,23.60
2018-12-17T21:12:32.807Z,23.43
2018-12-17T21:15:01.520Z,21.10
2018-12-17T21:17:31.069Z,20.83
2018-12-17T21:19:59.543Z,20.92
2018-12-17T21:22:27.624Z,21.20
2018-12-17T21:24:55.734Z,20.17
2018-12-17T21:27:23.859Z,18.97
2018-12-17T21:29:51.939Z,21.47
2018-12-17T21:32:20.040Z,29.13
2018-12-17T21:34:48.152Z,25.17
2018-12-17T21:37:16.346Z,31.03
2018-12-17T21:39:45.257Z,29.10
2018-12-17T21:42:13.385Z,25.07
2018-12-17T21:44:41.507Z,26.48
2018-12-17T21:47:09.748Z,26.53
2018-12-17T21:49:37.832Z,26.20
2018-12-17T21:52:07.415Z,32.23
2018-12-17T21:54:35.540Z,41.10
2018-12-17T21:57:03.627Z,50.67
2018-12-17T21:59:31.703Z,34.47
2018-12-17T22:01:59.974Z,31.27
2018-12-17T22:04:28.105Z,28.93
2018-12-17T22:06:56.215Z,25.97
2018-12-17T22:09:24.342Z,24.40
2018-12-17T22:11:52.439Z,21.65
2018-12-17T22:14:21.663Z,20.13
2018-12-17T22:16:49.827Z,19.10
2018-12-17T22:19:17.957Z,17.80
2018-12-17T22:21:46.074Z,17.67
2018-12-17T22:24:14.179Z,17.90
2018-12-17T22:26:42.420Z,16.20
2018-12-17T22:29:11.045Z,17.73
2018-12-17T22:31:39.182Z,16.50
2018-12-17T22:34:07.263Z,15.67
2018-12-17T22:36:35.410Z,15.57
2018-12-17T22:39:05.276Z,14.33
2018-12-17T22:41:33.806Z,14.37
2018-12-17T22:44:02.026Z,14.47
2018-12-17T22:46:30.269Z,15.10
2018-12-17T22:48:58.351Z,14.57
2018-12-17T22:51:26.454Z,14.33
2018-12-17T22:53:54.591Z,14.33
2018-12-17T22:56:24.389Z,14.30
2018-12-17T22:58:52.474Z,13.93
2018-12-17T23:01:20.676Z,13.77
2018-12-17T23:03:48.877Z,15.03
2018-12-17T23:06:16.984Z,15.28
2018-12-17T23:08:56.427Z,15.37
2018-12-17T23:11:40.232Z,14.90
2018-12-17T23:14:20.925Z,16.73
2018-12-17T23:17:00.515Z,18.53
2018-12-17T23:19:28.398Z,18.43
2018-12-17T23:21:56.557Z,18.73
2018-12-17T23:24:24.787Z,18.47
2018-12-17T23:26:52.953Z,18.20
2018-12-17T23:29:21.435Z,16.70
2018-12-17T23:31:53.347Z,19.00
2018-12-17T23:34:21.471Z,20.03
2018-12-17T23:36:49.692Z,17.60
2018-12-17T23:39:18.490Z,17.10
2018-12-17T23:41:46.852Z,55.17
2018-12-17T23:44:15.280Z,35.10
2018-12-17T23:46:43.950Z,34.67
2018-12-17T23:49:12.116Z,28.83
2018-12-17T23:51:40.239Z,24.30
2018-12-17T23:54:08.876Z,22.03
2018-12-17T23:56:36.961Z,18.43
2018-12-17T23:59:06.010Z,18.70
